Time;durP1;ratioP1;P1;durP2;ratioP2;P2;SDS_P1;SDS_P2;PMS_P1;PMS_P2;Temp;Humidity;BMP_temperature;BMP_pressure;BME280_temperature;BME280_humidity;BME280_pressure;Samples;Min_cycle;Max_cycle;Signal;HPM_P1;HPM_P2
2021/11/02 00:02:16;;;;;;;;;37.25;31.50;;;;;15.43;68.02;100665.34;146605;706;46012;-77
2021/11/02 00:04:49;;;;;;;;;30.00;27.25;;;;;15.44;68.98;100667.09;146606;574;46014;-74
2021/11/02 00:07:26;;;;;;;;;29.25;28.00;;;;;15.47;68.10;100668.94;146605;631;46017;-75
2021/11/02 00:10:03;;;;;;;;;22.50;21.25;;;;;15.48;68.07;100678.53;146608;595;45020;-75
2021/11/02 00:12:37;;;;;;;;;29.25;27.50;;;;;15.48;68.70;100671.59;146604;563;45909;-75
2021/11/02 00:15:12;;;;;;;;;26.75;25.00;;;;;15.48;67.92;100670.69;146609;619;45027;-76
2021/11/02 00:17:48;;;;;;;;;33.00;26.75;;;;;15.45;68.90;100671.50;146606;599;46012;-79
2021/11/02 00:20:22;;;;;;;;;30.00;26.25;;;;;15.45;69.00;100665.38;146609;580;45020;-78
2021/11/02 00:22:57;;;;;;;;;24.50;22.75;;;;;15.43;70.15;100659.25;146602;568;48020;-79
2021/11/02 00:25:33;;;;;;;;;22.25;20.50;;;;;15.42;70.27;100660.06;146610;604;45020;-80
2021/11/02 00:28:08;;;;;;;;;27.50;23.25;;;;;15.41;70.14;100648.72;146608;597;45016;-79
2021/11/02 00:30:41;;;;;;;;;28.75;24.75;;;;;15.39;70.30;100639.06;146606;602;46020;-81
2021/11/02 00:33:15;;;;;;;;;32.00;28.50;;;;;15.38;70.32;100632.06;146604;565;46016;-71
2021/11/02 00:35:51;;;;;;;;;25.25;22.00;;;;;15.37;69.96;100630.31;146605;614;46020;-75
2021/11/02 00:38:25;;;;;;;;;29.25;27.75;;;;;15.34;68.74;100614.53;146605;569;46012;-75
2021/11/02 00:40:59;;;;;;;;;29.75;25.50;;;;;15.31;68.74;100604.88;146609;619;45026;-75
2021/11/02 00:43:35;;;;;;;;;41.50;32.25;;;;;15.32;68.42;100605.75;146605;599;46020;-74
2021/11/02 00:46:09;;;;;;;;;43.00;34.25;;;;;15.29;67.77;100597.84;146608;628;45021;-76
2021/11/02 00:48:43;;;;;;;;;35.75;33.25;;;;;15.26;68.18;100598.62;146604;578;45909;-76
2021/11/02 00:51:17;;;;;;;;;35.25;28.00;;;;;15.20;68.01;100587.97;146608;600;46015;-78
2021/11/02 00:53:51;;;;;;;;;27.00;24.25;;;;;15.19;67.51;100602.78;146608;563;45033;-75
2021/11/02 00:56:24;;;;;;;;;30.75;27.75;;;;;15.19;67.43;100600.16;146609;577;45915;-78
2021/11/02 00:58:58;;;;;;;;;31.25;25.00;;;;;15.21;67.47;100589.78;146604;588;46013;-75
2021/11/02 01:01:32;;;;;;;;;45.50;35.75;;;;;15.21;67.42;100588.03;146609;564;45014;-74
2021/11/02 01:04:10;;;;;;;;;52.25;42.50;;;;;15.18;67.43;100568.78;146604;577;46016;-78
2021/11/02 01:06:45;;;;;;;;;50.75;39.50;;;;;15.13;66.98;100568.63;146608;619;46015;-76
2021/11/02 01:09:19;;;;;;;;;49.00;38.50;;;;;15.05;67.61;100558.81;146605;579;46021;-75
2021/11/02 01:11:53;;;;;;;;;46.75;37.25;;;;;14.91;68.14;100550.53;146608;569;46031;-73
2021/11/02 01:14:27;;;;;;;;;42.50;35.50;;;;;14.79;68.29;100548.44;146606;574;45017;-72
2021/11/02 01:17:01;;;;;;;;;43.00;35.00;;;;;14.70;68.46;100551.66;146607;588;45020;-75
2021/11/02 01:19:35;;;;;;;;;42.25;36.00;;;;;14.63;68.68;100567.94;146604;571;46018;-74
2021/11/02 01:22:09;;;;;;;;;41.25;32.50;;;;;14.57;68.80;100567.75;146609;579;46010;-76
2021/11/02 01:24:43;;;;;;;;;42.50;34.50;;;;;14.51;69.55;100563.22;146604;584;46016;-74
2021/11/02 01:27:17;;;;;;;;;47.50;39.00;;;;;14.47;69.98;100571.75;146610;686;45020;-70
2021/11/02 01:29:51;;;;;;;;;41.50;35.00;;;;;14.41;69.11;100573.28;146603;640;46016;-71
2021/11/02 01:32:25;;;;;;;;;40.25;33.75;;;;;14.38;69.75;100567.94;146606;570;46020;-74
2021/11/02 01:35:00;;;;;;;;;45.75;36.25;;;;;14.32;70.61;100561.69;146606;648;46016;-74
2021/11/02 01:37:38;;;;;;;;;46.50;35.75;;;;;14.24;70.73;100555.34;146607;564;46020;-75
2021/11/02 01:40:16;;;;;;;;;45.00;36.50;;;;;14.16;70.36;100543.75;146606;574;46012;-74
2021/11/02 01:42:50;;;;;;;;;48.25;37.25;;;;;14.13;71.26;100533.22;146608;605;45020;-73
2021/11/02 01:45:27;;;;;;;;;47.50;36.00;;;;;14.09;70.89;100531.34;146605;615;45021;-74
2021/11/02 01:48:01;;;;;;;;;46.75;35.25;;;;;14.08;71.31;100534.78;146608;582;45020;-74
2021/11/02 01:50:35;;;;;;;;;42.25;36.25;;;;;14.09;71.09;100532.22;146605;584;46012;-75
2021/11/02 01:53:08;;;;;;;;;38.25;32.50;;;;;14.12;71.36;100534.06;146603;601;46021;-72
2021/11/02 01:55:42;;;;;;;;;39.25;32.00;;;;;14.14;71.17;100534.97;146605;679;46012;-76
2021/11/02 01:58:17;;;;;;;;;40.50;34.00;;;;;14.18;70.87;100547.31;146608;630;45020;-72
2021/11/02 02:01:00;;;;;;;;;29.75;28.00;;;;;14.22;70.63;100536.13;146605;604;46016;-72
2021/11/02 02:03:44;;;;;;;;;37.50;31.75;;;;;14.28;70.18;100532.84;146607;602;46014;-69
2021/11/02 02:07:04;;;;;;;;;27.25;24.00;;;;;14.39;69.54;100528.87;146605;592;46017;-70
2021/11/02 02:10:13;;;;;;;;;24.25;23.25;;;;;13.44;69.78;100316.34;146611;583;45031;-70
2021/11/02 02:13:11;;;;;;;;;33.50;28.50;;;;;14.72;69.78;100497.78;146608;576;46018;-70
2021/11/02 02:15:54;;;;;;;;;26.00;24.00;;;;;14.87;70.92;100492.13;146608;685;46020;-69
2021/11/02 02:18:40;;;;;;;;;31.25;27.50;;;;;15.01;70.10;100489.94;146609;563;46020;-70
2021/11/02 02:21:35;;;;;;;;;27.50;25.75;;;;;15.09;68.80;100488.44;146609;566;46011;-70
2021/11/02 02:24:53;;;;;;;;;27.75;23.25;;;;;14.01;68.60;100291.25;146608;573;46012;-70
2021/11/02 02:28:09;;;;;;;;;25.75;23.50;;;;;15.21;69.37;100474.84;146607;615;46010;-69
2021/11/02 02:30:52;;;;;;;;;29.75;25.75;;;;;15.26;67.95;100462.78;146612;589;45016;-70
2021/11/02 02:33:47;;;;;;;;;27.75;25.25;;;;;15.32;68.16;100467.31;146610;599;45020;-72
2021/11/02 02:36:23;;;;;;;;;28.00;24.25;;;;;15.35;68.67;100470.87;146605;591;45018;-72
2021/11/02 02:39:08;;;;;;;;;25.00;23.75;;;;;15.39;68.04;100478.00;146605;658;46020;-73
2021/11/02 02:41:44;;;;;;;;;26.75;24.50;;;;;15.42;69.18;100472.84;146610;569;45039;-72
2021/11/02 02:44:19;;;;;;;;;27.50;22.50;;;;;15.45;70.15;100480.78;146608;597;45021;-72
2021/11/02 02:46:54;;;;;;;;;25.75;23.00;;;;;15.50;69.59;100474.78;146608;564;46012;-72
2021/11/02 02:49:30;;;;;;;;;24.50;19.25;;;;;15.53;70.17;100473.12;146608;579;45020;-72
2021/11/02 02:52:05;;;;;;;;;27.25;24.00;;;;;15.56;70.41;100469.72;146607;570;46012;-76
2021/11/02 02:54:40;;;;;;;;;31.00;26.75;;;;;15.60;70.90;100477.66;146609;591;45020;-76
2021/11/02 02:57:15;;;;;;;;;28.75;24.00;;;;;15.58;70.62;100473.25;146608;580;45016;-80
2021/11/02 02:59:49;;;;;;;;;32.00;27.50;;;;;15.57;70.80;100479.31;146610;573;45029;-79
2021/11/02 03:02:26;;;;;;;;;23.75;22.25;;;;;15.54;71.37;100487.94;146606;575;45016;-81
2021/11/02 03:05:01;;;;;;;;;25.00;20.50;;;;;15.48;70.77;100479.94;146610;633;45020;-79
2021/11/02 03:07:35;;;;;;;;;28.75;25.00;;;;;15.41;71.67;100476.28;146605;619;46016;-81
2021/11/02 03:10:16;;;;;;;;;28.00;23.75;;;;;15.38;71.79;100478.81;146607;573;45913;-82
2021/11/02 03:12:51;;;;;;;;;31.25;25.50;;;;;15.36;71.42;100488.34;146606;570;46016;-80
2021/11/02 03:15:48;;;;;;;;;24.25;22.75;;;;;15.34;70.97;100486.53;146607;573;46010;-78
2021/11/02 03:51:18;;;;;;;;;28.00;24.00;;;;;15.30;70.30;100442.88;146607;636;46020;-78
2021/11/02 04:26:50;;;;;;;;;20.25;18.75;;;;;15.66;69.09;100399.41;146606;606;46014;-71
2021/11/02 04:35:23;;;;;;;;;18.75;17.25;;;;;15.67;68.51;100377.72;146605;565;45018;-76
2021/11/02 05:07:59;;;;;;;;;20.25;17.50;;;;;16.12;68.06;100363.09;146608;571;46020;-75
2021/11/02 05:54:50;;;;;;;;;21.50;16.75;;;;;16.65;66.40;100305.78;146607;641;46020;-79
2021/11/02 05:57:32;;;;;;;;;17.50;15.75;;;;;16.62;67.08;100330.16;146606;747;45914;-78
2021/11/02 06:00:19;;;;;;;;;19.75;17.50;;;;;16.69;66.37;100330.28;146608;581;46020;-78
2021/11/02 06:03:12;;;;;;;;;21.25;18.75;;;;;16.68;66.79;100332.03;146604;591;46016;-76
2021/11/02 06:05:57;;;;;;;;;22.50;20.75;;;;;16.70;67.24;100314.63;146607;599;46021;-73
2021/11/02 06:29:35;;;;;;;;;20.25;16.00;;;;;16.98;66.45;100279.41;146606;730;46020;-75
2021/11/02 06:35:20;;;;;;;;;20.75;19.75;;;;;17.05;66.42;100288.25;146607;575;45021;-80
2021/11/02 06:44:18;;;;;;;;;18.75;15.00;;;;;17.17;66.40;100303.31;146604;614;46016;-83
2021/11/02 06:47:27;;;;;;;;;21.50;17.50;;;;;17.24;67.14;100300.81;146608;616;46010;-78
2021/11/02 06:50:33;;;;;;;;;21.75;18.00;;;;;17.29;66.77;100307.03;146603;593;46013;-77
2021/11/02 06:57:10;;;;;;;;;17.75;14.75;;;;;17.37;66.03;100280.06;146603;571;46018;-78
2021/11/02 07:18:06;;;;;;;;;20.75;16.50;;;;;17.41;67.46;100281.84;146609;594;46020;-85
2021/11/02 08:46:24;;;;;;;;;15.00;14.75;;;;;20.37;62.92;100171.81;146609;564;45020;-77
2021/11/02 08:48:59;;;;;;;;;21.25;17.50;;;;;20.46;62.63;100156.91;146606;595;46012;-77
2021/11/02 08:51:34;;;;;;;;;14.00;13.00;;;;;20.55;62.54;100187.69;146609;585;45020;-76
2021/11/02 08:54:11;;;;;;;;;15.75;15.00;;;;;20.56;62.26;100165.75;146605;573;45912;-76
2021/11/02 08:56:45;;;;;;;;;16.50;15.75;;;;;20.61;62.37;100166.63;146607;663;46020;-80
2021/11/02 08:59:19;;;;;;;;;21.75;17.25;;;;;20.71;62.14;100152.56;146606;672;45020;-78
2021/11/02 09:01:58;;;;;;;;;21.25;18.25;;;;;20.80;62.09;100161.38;146609;616;45021;-78
2021/11/02 09:04:37;;;;;;;;;17.50;16.25;;;;;20.76;62.00;100164.00;146609;583;45016;-80
2021/11/02 09:07:12;;;;;;;;;16.75;16.25;;;;;20.72;62.08;100178.06;146608;655;45020;-78
2021/11/02 09:09:51;;;;;;;;;20.50;18.25;;;;;20.73;62.92;100155.22;146606;582;45017;-77
2021/11/02 09:12:36;;;;;;;;;19.50;15.75;;;;;20.94;61.79;100159.63;146606;698;46010;-77
2021/11/02 09:15:13;;;;;;;;;18.25;16.25;;;;;21.13;61.28;100158.75;146604;621;46016;-81
2021/11/02 09:17:51;;;;;;;;;13.00;11.75;;;;;21.39;60.98;100171.03;146610;574;45021;-77
2021/11/02 09:20:26;;;;;;;;;15.25;13.75;;;;;21.35;60.41;100203.53;146606;596;45040;-78
2021/11/02 09:23:00;;;;;;;;;16.00;14.50;;;;;21.23;61.01;100152.56;146608;576;46010;-80
2021/11/02 09:25:36;;;;;;;;;16.50;15.00;;;;;21.07;61.62;100160.50;146606;570;46011;-80
2021/11/02 09:28:10;;;;;;;;;19.50;16.00;;;;;21.00;61.69;100159.63;146606;674;45913;-82
2021/11/02 09:30:47;;;;;;;;;20.25;15.25;;;;;20.93;61.40;100139.41;146607;648;45038;-79
2021/11/02 09:33:21;;;;;;;;;16.67;14.00;;;;;20.91;62.15;100149.09;146607;702;46029;-80
2021/11/02 09:36:12;;;;;;;;;17.00;16.00;;;;;20.93;62.90;100145.59;146608;580;45020;-81
2021/11/02 09:38:58;;;;;;;;;20.50;14.50;;;;;20.92;62.27;100153.47;146607;606;45039;-79
2021/11/02 09:42:15;;;;;;;;;14.00;12.67;;;;;19.97;62.42;99976.94;146607;616;46012;-81
2021/11/02 09:45:22;;;;;;;;;17.25;15.75;;;;;20.08;61.88;99999.75;146609;600;46010;-80
2021/11/02 09:48:39;;;;;;;;;15.75;15.75;;;;;19.94;62.41;99972.56;146605;588;46012;-80
2021/11/02 09:52:06;;;;;;;;;20.75;19.25;;;;;19.89;63.21;99976.94;146611;564;45020;-79
2021/11/02 09:55:26;;;;;;;;;14.75;13.75;;;;;19.96;63.13;99990.97;146606;575;45914;-80
2021/11/02 09:58:54;;;;;;;;;20.50;15.75;;;;;19.94;62.26;99969.06;146608;578;46010;-81
2021/11/02 10:01:53;;;;;;;;;17.25;15.00;;;;;21.04;62.69;100128.87;146607;672;46017;-81
2021/11/02 10:05:13;;;;;;;;;16.25;13.50;;;;;20.14;63.09;99956.78;146607;567;45020;-80
2021/11/02 10:08:35;;;;;;;;;16.50;16.50;;;;;21.12;62.33;100104.25;146609;570;46012;-80
2021/11/02 10:11:40;;;;;;;;;16.50;14.75;;;;;21.08;62.41;100136.75;146611;584;45021;-80
2021/11/02 10:15:28;;;;;;;;;15.00;13.25;;;;;20.91;62.93;100157.88;146608;650;46012;-79
2021/11/02 10:18:39;;;;;;;;;13.00;12.00;;;;;20.82;63.42;100138.53;146603;570;46010;-74
2021/11/02 10:21:56;;;;;;;;;16.00;14.75;;;;;19.68;63.92;99961.13;146608;694;45018;-79
2021/11/02 10:24:56;;;;;;;;;13.00;12.00;;;;;20.68;64.10;100143.78;146609;629;46021;-78
2021/11/02 10:28:00;;;;;;;;;17.25;14.25;;;;;20.71;64.22;100154.34;146607;679;46016;-78
2021/11/02 10:31:20;;;;;;;;;16.00;15.00;;;;;20.77;64.08;100135.91;146610;636;46010;-80
2021/11/02 10:34:10;;;;;;;;;16.75;15.50;;;;;20.92;64.03;100141.16;146607;591;45914;-79
2021/11/02 10:37:36;;;;;;;;;15.00;13.00;;;;;21.18;64.26;100130.62;146607;569;45020;-79
2021/11/02 10:40:34;;;;;;;;;17.25;15.75;;;;;21.45;63.04;100111.22;146608;585;46019;-79
2021/11/02 10:43:49;;;;;;;;;13.75;12.25;;;;;21.19;62.04;99991.75;146609;687;46020;-79
2021/11/02 10:46:37;;;;;;;;;15.25;15.25;;;;;22.13;60.04;100147.91;146605;619;45914;-80
2021/11/02 10:49:41;;;;;;;;;19.00;15.75;;;;;22.14;60.70;100150.53;146607;660;46020;-79
2021/11/02 10:52:16;;;;;;;;;17.25;14.50;;;;;22.08;60.91;100137.38;146609;613;45016;-79
2021/11/02 10:55:23;;;;;;;;;17.50;16.00;;;;;22.07;61.02;100138.25;146608;718;46010;-79
2021/11/02 10:58:37;;;;;;;;;14.33;11.67;;;;;21.18;60.83;99968.91;146606;569;46012;-77
2021/11/02 11:01:13;;;;;;;;;17.25;16.25;;;;;22.25;61.76;100136.44;146609;564;45021;-79
2021/11/02 11:03:47;;;;;;;;;15.50;14.25;;;;;22.33;61.02;100146.06;146603;570;46016;-80
2021/11/02 11:06:25;;;;;;;;;15.00;14.75;;;;;22.39;60.94;100145.16;146609;563;45020;-78
2021/11/02 11:09:02;;;;;;;;;13.00;13.00;;;;;22.47;60.72;100156.56;146606;577;45017;-79
2021/11/02 11:11:43;;;;;;;;;16.00;13.75;;;;;22.56;59.54;100155.63;146610;591;45020;-80
2021/11/02 11:14:19;;;;;;;;;15.00;13.25;;;;;22.65;60.25;100162.59;146607;593;46911;-79
2021/11/02 11:19:48;;;;;;;;;16.00;14.75;;;;;22.69;60.40;100148.47;146605;565;46012;-80
2021/11/02 11:22:28;;;;;;;;;12.00;11.75;;;;;22.75;60.82;100159.00;146603;605;46020;-80
2021/11/02 11:25:11;;;;;;;;;13.00;12.25;;;;;22.83;59.46;100134.28;146593;642;47012;-81
2021/11/02 11:27:57;;;;;;;;;16.00;13.33;;;;;22.88;60.22;100136.00;146600;611;46020;-79
2021/11/02 11:30:39;;;;;;;;;14.33;12.67;;;;;22.88;59.98;100144.81;146597;630;46017;-79
2021/11/02 11:33:20;;;;;;;;;14.00;11.50;;;;;22.88;59.66;100150.09;146596;652;47010;-81
2021/11/02 11:35:59;;;;;;;;;12.00;10.67;;;;;22.91;58.46;100144.78;146598;631;46012;-80
2021/11/02 11:38:43;;;;;;;;;15.00;12.33;;;;;22.87;59.62;100156.28;146599;566;47011;-79
2021/11/02 11:41:19;;;;;;;;;13.67;13.67;;;;;22.82;58.67;100144.84;146596;569;46012;-79
2021/11/02 11:43:55;;;;;;;;;13.00;12.25;;;;;22.82;59.70;100144.84;146602;692;46010;-80
2021/11/02 11:46:34;;;;;;;;;14.33;12.67;;;;;22.89;60.65;100153.59;146597;654;46013;-80
2021/11/02 11:49:08;;;;;;;;;16.00;13.33;;;;;23.00;59.96;100165.00;146600;669;46020;-79
2021/11/02 11:51:43;;;;;;;;;13.50;13.00;;;;;23.10;58.79;100157.88;146598;589;46016;-80
2021/11/02 11:54:19;;;;;;;;;13.75;13.75;;;;;23.19;59.80;100142.78;146598;600;46020;-81
2021/11/02 11:57:01;;;;;;;;;37.50;31.75;;;;;23.36;58.32;100150.53;146594;574;47012;-79
2021/11/02 11:59:36;;;;;;;;;30.00;28.50;;;;;23.48;58.42;100145.13;146599;592;46021;-80
2021/11/02 12:02:35;;;;;;;;;28.75;26.75;;;;;23.60;58.93;100159.13;146598;608;46017;-81
2021/11/02 12:05:17;;;;;;;;;31.75;28.50;;;;;23.69;58.55;100146.69;146597;619;47010;-80
2021/11/02 12:08:19;;;;;;;;;35.75;31.75;;;;;23.88;57.03;100157.94;146595;565;47012;-82
2021/11/02 12:11:03;;;;;;;;;25.00;24.50;;;;;23.71;57.18;100158.16;146598;583;47010;-80
2021/11/02 12:13:44;;;;;;;;;30.75;28.25;;;;;23.56;58.03;100158.28;146597;589;46018;-82
2021/11/02 12:16:25;;;;;;;;;37.75;32.25;;;;;23.51;57.46;100152.16;146599;571;46028;-81
2021/11/02 12:19:13;;;;;;;;;36.75;30.75;;;;;23.59;58.89;100166.19;146597;637;47012;-81
2021/11/02 12:21:55;;;;;;;;;35.25;29.75;;;;;23.75;57.34;100161.63;146599;581;46020;-81
2021/11/02 12:24:42;;;;;;;;;33.75;30.50;;;;;23.76;57.33;100155.44;146598;616;46016;-80
2021/11/02 12:27:25;;;;;;;;;28.75;28.00;;;;;23.84;58.50;100171.25;146599;602;46020;-81
2021/11/02 12:30:07;;;;;;;;;32.25;27.00;;;;;23.97;56.80;100168.41;146596;564;47915;-80
2021/11/02 12:32:50;;;;;;;;;34.00;29.25;;;;;24.03;56.53;100141.00;146600;639;46020;-79
2021/11/02 12:35:52;;;;;;;;;33.00;30.25;;;;;24.37;55.52;100167.03;146597;595;46016;-79
2021/11/02 12:38:37;;;;;;;;;29.50;26.50;;;;;24.45;55.56;100151.03;146597;569;47010;-80
2021/11/02 12:41:28;;;;;;;;;30.75;27.00;;;;;24.58;56.45;100155.25;146597;692;46016;-80
2021/11/02 12:44:17;;;;;;;;;31.25;27.00;;;;;24.78;54.82;100162.91;146602;618;46020;-80
2021/11/02 12:46:52;;;;;;;;;27.50;25.75;;;;;24.88;54.71;100146.81;146599;582;46017;-79
2021/11/02 12:49:45;;;;;;;;;34.25;28.75;;;;;24.96;54.51;100153.78;146600;569;46020;-79
2021/11/02 12:52:23;;;;;;;;;29.00;25.25;;;;;25.04;54.64;100146.56;146602;565;48010;-79
2021/11/02 12:55:15;;;;;;;;;27.25;25.00;;;;;25.16;54.44;100162.28;146602;605;46020;-79
2021/11/02 12:57:58;;;;;;;;;34.50;30.50;;;;;25.20;54.15;100152.50;146598;564;46016;-79
2021/11/02 13:00:32;;;;;;;;;29.00;27.25;;;;;25.13;53.23;100135.81;146604;585;46021;-80
2021/11/02 13:03:14;;;;;;;;;33.75;29.25;;;;;25.16;54.17;100153.47;146601;565;47012;-79
2021/11/02 13:06:08;;;;;;;;;34.50;27.00;;;;;25.22;54.82;100159.53;146607;675;46021;-79
2021/11/02 13:09:07;;;;;;;;;30.25;26.00;;;;;24.33;54.35;99995.72;146602;590;46016;-79
2021/11/02 13:11:42;;;;;;;;;26.25;26.00;;;;;25.35;53.73;100161.06;146606;587;46020;-81
2021/11/02 13:14:17;;;;;;;;;33.75;31.00;;;;;25.43;52.30;100171.53;146603;611;46017;-79
2021/11/02 13:17:08;;;;;;;;;27.25;26.25;;;;;25.41;53.43;100180.44;146608;578;45032;-79
2021/11/02 13:19:48;;;;;;;;;33.00;28.00;;;;;25.30;53.15;100185.94;146604;680;46016;-79
2021/11/02 13:22:28;;;;;;;;;30.25;28.25;;;;;25.06;53.34;100184.53;146608;595;46008;-80
2021/11/02 13:25:22;;;;;;;;;29.50;27.25;;;;;24.98;55.35;100181.12;146603;576;46016;-80
2021/11/02 13:27:58;;;;;;;;;29.50;27.50;;;;;25.04;52.82;100175.72;146608;686;46021;-80
2021/11/02 13:30:43;;;;;;;;;28.00;26.25;;;;;25.12;54.90;100188.00;146604;633;46016;-80
2021/11/02 13:33:26;;;;;;;;;32.50;25.00;;;;;25.21;54.80;100189.63;146606;670;46020;-79
2021/11/02 13:36:07;;;;;;;;;32.00;27.50;;;;;25.23;53.49;100171.88;146607;595;46012;-79
2021/11/02 13:38:47;;;;;;;;;28.25;24.75;;;;;25.35;53.54;100178.75;146611;622;46012;-80
2021/11/02 13:41:32;;;;;;;;;31.00;29.25;;;;;25.43;54.84;100184.81;146604;569;46016;-79
2021/11/02 13:44:15;;;;;;;;;30.25;27.25;;;;;25.47;53.45;100175.00;146607;603;46010;-81
2021/11/02 13:47:01;;;;;;;;;33.50;28.50;;;;;25.46;53.30;100171.47;146603;574;46016;-79
2021/11/02 13:49:37;;;;;;;;;28.50;26.00;;;;;25.39;52.78;100177.81;146607;600;46010;-79
2021/11/02 13:52:13;;;;;;;;;33.50;29.25;;;;;25.16;52.45;100183.50;146605;685;45039;-80
2021/11/02 13:54:48;;;;;;;;;26.25;25.50;;;;;24.89;53.19;100185.72;146608;586;46010;-80
2021/11/02 13:57:22;;;;;;;;;30.75;27.25;;;;;24.68;53.54;100194.00;146606;605;46012;-80
2021/11/02 13:59:56;;;;;;;;;28.00;26.25;;;;;24.46;54.29;100196.09;146610;621;45024;-81
2021/11/02 14:02:33;;;;;;;;;29.25;26.00;;;;;24.23;54.73;100200.75;146607;599;46012;-80
2021/11/02 14:05:09;;;;;;;;;31.75;30.00;;;;;24.02;55.14;100208.09;146609;577;45021;-81
2021/11/02 14:07:44;;;;;;;;;32.50;28.75;;;;;23.87;55.38;100213.56;146603;570;46016;-80
2021/11/02 14:10:19;;;;;;;;;30.25;28.00;;;;;23.74;55.70;100215.50;146606;565;45042;-82
2021/11/02 14:12:53;;;;;;;;;33.75;30.50;;;;;23.59;55.85;100219.13;146606;606;45017;-82
2021/11/02 14:15:32;;;;;;;;;43.00;34.00;;;;;23.46;55.97;100234.25;146608;588;45022;-81
2021/11/02 14:18:19;;;;;;;;;36.00;31.50;;;;;23.29;56.88;100230.87;146603;621;46016;-80
2021/11/02 14:20:55;;;;;;;;;27.75;25.25;;;;;23.12;56.90;100230.16;146608;706;46010;-81
2021/11/02 14:23:46;;;;;;;;;31.50;29.25;;;;;22.95;57.25;100228.50;146604;615;46016;-81
2021/11/02 14:26:29;;;;;;;;;31.25;28.00;;;;;22.74;57.24;100232.16;146610;603;45028;-81
2021/11/02 14:29:08;;;;;;;;;31.50;30.00;;;;;22.52;56.54;100234.03;146605;760;46016;-81
2021/11/02 14:31:52;;;;;;;;;33.00;28.75;;;;;22.31;57.90;100242.94;146606;640;47012;-80
2021/11/02 14:34:49;;;;;;;;;35.00;29.75;;;;;22.04;58.52;100222.75;146606;658;45018;-81
2021/11/02 14:37:26;;;;;;;;;34.25;30.25;;;;;21.95;58.50;100243.03;146610;569;45020;-81
2021/11/02 14:40:11;;;;;;;;;39.50;32.50;;;;;21.80;58.88;100247.44;146604;586;46020;-80
2021/11/02 14:42:51;;;;;;;;;37.00;32.50;;;;;21.62;58.84;100240.47;146605;761;45021;-81
2021/11/02 14:45:46;;;;;;;;;41.75;33.00;;;;;21.48;60.03;100251.91;146603;572;46012;-81
2021/11/02 14:48:37;;;;;;;;;33.50;30.50;;;;;21.31;59.79;100244.88;146607;587;47012;-81
2021/11/02 14:51:32;;;;;;;;;38.00;32.25;;;;;21.17;59.91;100243.97;146605;577;46915;-81
2021/11/02 14:54:29;;;;;;;;;38.00;32.50;;;;;21.02;60.56;100241.31;146607;589;46010;-82
2021/11/02 14:57:41;;;;;;;;;35.25;30.75;;;;;20.89;60.96;100241.31;146609;648;46012;-81
2021/11/02 15:00:15;;;;;;;;;35.75;30.00;;;;;20.79;60.81;100244.81;146608;604;45020;-81
2021/11/02 15:02:49;;;;;;;;;35.25;31.75;;;;;20.69;61.28;100248.31;146605;629;46016;-81
2021/11/02 15:05:26;;;;;;;;;34.00;31.00;;;;;20.58;61.14;100247.41;146609;653;46021;-81
2021/11/02 15:08:01;;;;;;;;;36.00;31.50;;;;;20.44;61.42;100248.22;146602;588;47012;-81
2021/11/02 15:10:35;;;;;;;;;32.50;31.25;;;;;20.34;61.71;100245.50;146608;611;46008;-81
2021/11/02 15:13:09;;;;;;;;;36.00;32.00;;;;;20.26;61.76;100242.88;146608;565;45017;-82
2021/11/02 15:15:47;;;;;;;;;35.00;31.00;;;;;20.19;62.17;100251.63;146608;589;46020;-80
2021/11/02 15:18:21;;;;;;;;;38.00;31.75;;;;;20.10;62.43;100251.56;146606;573;45016;-81
2021/11/02 15:21:03;;;;;;;;;46.25;36.00;;;;;20.02;62.56;100246.25;146609;613;46020;-81
2021/11/02 15:23:46;;;;;;;;;35.75;29.75;;;;;19.94;62.72;100253.25;146608;575;46012;-82
2021/11/02 15:26:23;;;;;;;;;38.00;31.75;;;;;19.87;62.84;100254.94;146607;642;46010;-81
2021/11/02 15:28:58;;;;;;;;;38.00;31.00;;;;;19.81;63.19;100261.06;146609;595;45014;-82
2021/11/02 15:31:33;;;;;;;;;35.50;31.75;;;;;19.75;63.62;100266.28;146609;675;46010;-80
2021/11/02 15:34:19;;;;;;;;;46.25;35.25;;;;;19.68;63.27;100253.94;146608;566;45020;-83
2021/11/02 15:37:12;;;;;;;;;40.25;34.00;;;;;19.63;63.40;100263.53;146608;604;46909;-81
2021/11/02 15:39:47;;;;;;;;;41.25;33.25;;;;;19.58;63.82;100273.12;146604;573;45915;-82
2021/11/02 15:42:31;;;;;;;;;41.25;33.50;;;;;19.50;63.92;100274.81;146607;565;45048;-81
2021/11/02 15:45:37;;;;;;;;;46.25;37.75;;;;;19.41;63.84;100283.53;146603;637;46016;-82
2021/11/02 15:48:14;;;;;;;;;51.00;42.00;;;;;19.30;64.19;100280.81;146608;577;45024;-82
2021/11/02 15:50:54;;;;;;;;;42.50;35.00;;;;;18.91;64.52;100248.03;146605;580;46016;-81
2021/11/02 15:53:30;;;;;;;;;49.25;38.25;;;;;19.06;64.77;100294.59;146608;566;46020;-80
2021/11/02 15:56:05;;;;;;;;;46.25;37.75;;;;;18.92;65.20;100283.94;146606;557;46016;-81
2021/11/02 15:58:39;;;;;;;;;49.00;39.75;;;;;18.84;65.85;100287.34;146607;600;46012;-81
2021/11/02 16:01:13;;;;;;;;;48.25;40.50;;;;;18.73;65.57;100289.00;146607;628;45915;-81
2021/11/02 16:03:48;;;;;;;;;51.50;40.50;;;;;18.63;65.92;100294.13;146606;617;45021;-81
2021/11/02 16:06:22;;;;;;;;;48.75;39.25;;;;;18.55;66.25;100301.00;146604;599;45021;-82
2021/11/02 16:09:06;;;;;;;;;50.50;40.75;;;;;18.45;66.37;100299.16;146607;635;46020;-81
2021/11/02 16:11:40;;;;;;;;;54.75;43.00;;;;;18.34;67.11;100308.63;146605;581;46016;-80
2021/11/02 16:14:14;;;;;;;;;49.75;41.25;;;;;18.25;66.81;100309.38;146608;597;45033;-80
2021/11/02 16:16:53;;;;;;;;;54.25;43.50;;;;;18.21;67.16;100303.19;146603;612;46016;-81
2021/11/02 16:19:27;;;;;;;;;57.75;44.50;;;;;18.20;67.37;100311.94;146608;583;45021;-80
2021/11/02 16:22:03;;;;;;;;;58.00;44.50;;;;;18.16;67.04;100315.41;146607;597;45016;-81
2021/11/02 16:24:37;;;;;;;;;54.75;43.00;;;;;18.10;67.21;100315.31;146608;592;46020;-81
2021/11/02 16:27:21;;;;;;;;;52.25;42.25;;;;;18.04;67.21;100324.81;146604;632;46021;-82
2021/11/02 16:29:55;;;;;;;;;58.25;46.00;;;;;17.93;67.72;100327.28;146606;573;46020;-82
2021/11/02 16:32:31;;;;;;;;;59.00;45.75;;;;;17.84;67.75;100333.28;146604;592;47012;-81
2021/11/02 16:35:06;;;;;;;;;67.75;52.00;;;;;17.77;68.07;100332.28;146607;633;46010;-81
2021/11/02 16:37:44;;;;;;;;;62.00;49.00;;;;;17.73;67.61;100342.69;146607;644;45016;-81
2021/11/02 16:40:24;;;;;;;;;61.75;47.50;;;;;17.68;67.84;100336.47;146609;574;45021;-82
2021/11/02 16:43:09;;;;;;;;;59.75;44.75;;;;;17.63;67.89;100343.38;146607;619;46012;-81
2021/11/02 16:45:43;;;;;;;;;62.75;47.25;;;;;17.55;68.53;100344.16;146608;566;46909;-81
2021/11/02 16:48:17;;;;;;;;;59.25;46.00;;;;;17.48;68.40;100350.16;146606;610;46013;-81
2021/11/02 16:51:00;;;;;;;;;58.75;46.00;;;;;17.44;68.74;100360.53;146599;612;47012;-82
2021/11/02 16:53:35;;;;;;;;;58.25;45.00;;;;;17.42;68.97;100363.16;146606;697;46915;-82
2021/11/02 16:56:35;;;;;;;;;56.50;44.75;;;;;16.25;68.60;100162.81;146608;632;45021;-81
2021/11/02 17:00:04;;;;;;;;;60.75;46.75;;;;;17.36;68.42;100362.16;146607;580;45918;-82
2021/11/02 17:02:41;;;;;;;;;55.75;45.00;;;;;17.29;69.26;100363.78;146608;609;46020;-82
2021/11/02 17:05:29;;;;;;;;;59.75;47.00;;;;;17.23;68.79;100372.41;146605;684;45017;-82
2021/11/02 17:08:14;;;;;;;;;58.25;46.00;;;;;17.16;70.19;100374.88;146608;633;46010;-80
2021/11/02 17:10:58;;;;;;;;;52.75;41.75;;;;;17.07;69.31;100384.34;146603;750;47013;-80